Time;durP1;ratioP1;P1;durP2;ratioP2;P2;SDS_P1;SDS_P2;PMS_P1;PMS_P2;Temp;Humidity;BMP_temperature;BMP_pressure;BME280_temperature;BME280_humidity;BME280_pressure;Samples;Min_cycle;Max_cycle;Signal;HPM_P1;HPM_P2
2022/03/05 00:01:22;;;;;;;14.68;6.95;;;1.60;72.30;;;;;;5038199;28;20049;-71
2022/03/05 00:03:52;;;;;;;16.10;6.38;;;1.60;72.30;;;;;;5039735;28;20067;-72
2022/03/05 00:06:20;;;;;;;;;;;1.60;72.30;;;;;;5048234;28;20044;-71
2022/03/05 00:08:47;;;;;;;12.00;6.13;;;1.60;72.40;;;;;;5051227;28;19928;-72
2022/03/05 00:11:18;;;;;;;13.25;8.00;;;1.60;72.20;;;;;;5051088;28;20598;-70
2022/03/05 00:13:45;;;;;;;;;;;1.60;72.40;;;;;;5047412;28;20045;-72
2022/03/05 00:16:13;;;;;;;14.00;4.90;;;1.60;72.40;;;;;;5053599;28;20007;-70
2022/03/05 00:18:54;;;;;;;16.23;6.60;;;1.50;72.40;;;;;;5049117;28;20199;-70
2022/03/05 00:21:25;;;;;;;16.77;5.45;;;1.50;72.40;;;;;;5047074;28;20687;-72
2022/03/05 00:23:53;;;;;;;15.02;6.00;;;1.50;72.30;;;;;;5045791;28;20126;-70
2022/03/05 00:26:23;;;;;;;16.40;5.75;;;1.50;72.30;;;;;;5043987;28;20059;-71
2022/03/05 00:28:51;;;;;;;14.38;6.38;;;1.50;72.40;;;;;;5040459;28;20037;-71
2022/03/05 00:31:18;;;;;;;18.45;5.97;;;1.50;72.30;;;;;;5045340;28;20048;-72
2022/03/05 00:33:45;;;;;;;14.38;5.45;;;1.50;72.30;;;;;;5050547;28;20040;-72
2022/03/05 00:36:14;;;;;;;13.73;5.25;;;1.50;72.30;;;;;;5047926;28;20037;-72
2022/03/05 00:38:50;;;;;;;13.18;5.35;;;1.50;72.40;;;;;;5046854;28;20064;-70
2022/03/05 00:41:19;;;;;;;13.45;4.45;;;1.50;72.40;;;;;;5047575;28;20076;-70
2022/03/05 00:43:46;;;;;;;14.75;5.07;;;1.50;72.40;;;;;;5049971;28;20482;-71
2022/03/05 00:46:43;;;;;;;14.75;5.60;;;1.50;72.50;;;;;;4967921;28;20065;-72
2022/03/05 00:49:13;;;;;;;13.68;5.00;;;1.50;72.60;;;;;;4968191;28;20083;-72
2022/03/05 00:51:45;;;;;;;15.27;5.38;;;1.50;72.50;;;;;;5018332;28;20066;-70
2022/03/05 00:54:13;;;;;;;;;;;1.50;72.60;;;;;;5042551;28;20044;-71
2022/03/05 00:56:44;;;;;;;13.68;4.60;;;1.50;72.60;;;;;;5043196;28;19931;-70
2022/03/05 00:59:12;;;;;;;18.13;5.85;;;1.40;72.70;;;;;;5046943;28;20076;-70
2022/03/05 01:01:42;;;;;;;13.80;4.72;;;1.40;72.70;;;;;;5045964;28;20072;-71
2022/03/05 01:04:20;;;;;;;18.08;6.65;;;1.40;72.80;;;;;;5048130;28;20294;-70
2022/03/05 01:06:50;;;;;;;16.42;5.75;;;1.40;72.90;;;;;;5051432;28;20093;-71
2022/03/05 01:09:18;;;;;;;10.98;3.50;;;1.30;72.90;;;;;;5043759;28;22002;-70
2022/03/05 01:11:50;;;;;;;12.23;4.97;;;1.30;72.70;;;;;;5046383;28;21643;-71
2022/03/05 01:14:21;;;;;;;14.43;4.55;;;1.30;72.90;;;;;;5045047;28;20049;-71
2022/03/05 01:16:48;;;;;;;;;;;1.30;72.80;;;;;;5041809;28;20049;-71
2022/03/05 01:19:15;;;;;;;10.95;3.83;;;1.30;73.00;;;;;;5040008;28;19938;-69
2022/03/05 01:21:43;;;;;;;14.68;5.85;;;1.30;72.90;;;;;;5040762;28;20045;-70
2022/03/05 01:24:10;;;;;;;13.57;5.03;;;1.30;73.00;;;;;;5045844;28;20710;-70
2022/03/05 01:26:40;;;;;;;13.38;6.40;;;1.20;73.00;;;;;;5046541;28;20292;-70
2022/03/05 01:29:07;;;;;;;13.27;5.23;;;1.20;73.10;;;;;;5038243;28;20045;-71
2022/03/05 01:31:42;;;;;;;11.90;4.35;;;1.20;73.00;;;;;;5046357;28;20040;-70
2022/03/05 01:34:09;;;;;;;15.20;4.70;;;1.20;73.00;;;;;;5048716;28;20049;-68
2022/03/05 01:36:36;;;;;;;14.98;5.25;;;1.20;72.90;;;;;;5045705;28;20557;-69
2022/03/05 01:39:03;;;;;;;16.98;5.47;;;1.20;72.90;;;;;;5050160;28;20052;-71
2022/03/05 01:41:31;;;;;;;14.25;4.18;;;1.20;72.80;;;;;;5047800;28;20833;-71
2022/03/05 01:43:59;;;;;;;11.63;4.40;;;1.20;72.90;;;;;;5040093;28;20146;-71
2022/03/05 01:46:31;;;;;;;14.95;5.88;;;1.10;73.00;;;;;;5034654;28;20051;-72
2022/03/05 01:49:05;;;;;;;14.68;6.13;;;1.10;72.90;;;;;;5040905;28;20974;-70
2022/03/05 01:51:34;;;;;;;15.55;5.15;;;1.10;72.90;;;;;;5043094;28;20593;-73
2022/03/05 01:54:02;;;;;;;13.50;4.57;;;1.10;72.90;;;;;;5041049;28;20579;-71
2022/03/05 01:56:30;;;;;;;14.25;5.68;;;1.10;73.00;;;;;;5047508;28;20053;-73
2022/03/05 01:58:59;;;;;;;14.00;4.45;;;1.00;73.10;;;;;;5044325;28;20051;-71
2022/03/05 02:01:28;;;;;;;10.40;4.50;;;1.00;73.20;;;;;;5041875;28;20047;-71
2022/03/05 02:03:56;;;;;;;15.93;5.60;;;1.00;73.20;;;;;;5045356;28;20040;-70
2022/03/05 02:06:28;;;;;;;12.48;5.30;;;1.00;73.30;;;;;;5045062;28;20598;-70
2022/03/05 02:08:57;;;;;;;14.00;4.53;;;1.00;73.40;;;;;;5049565;28;20126;-72
2022/03/05 02:11:25;;;;;;;15.20;4.85;;;1.00;73.30;;;;;;5044569;28;20036;-73
2022/03/05 02:13:52;;;;;;;10.35;4.38;;;1.00;73.50;;;;;;5047460;28;20037;-71
2022/03/05 02:16:31;;;;;;;14.07;4.55;;;0.90;73.60;;;;;;5041192;28;20044;-70
2022/03/05 02:19:03;;;;;;;19.05;5.65;;;1.00;73.60;;;;;;5041976;28;20168;-70
2022/03/05 02:21:32;;;;;;;14.88;4.80;;;1.00;73.40;;;;;;5042732;28;20095;-72
2022/03/05 02:23:59;;;;;;;13.18;5.18;;;1.00;73.30;;;;;;5043811;28;20056;-71
2022/03/05 02:26:26;;;;;;;11.55;5.18;;;1.00;73.60;;;;;;5040710;28;20492;-71
2022/03/05 02:28:56;;;;;;;11.95;4.38;;;1.00;73.80;;;;;;5032106;28;20121;-72
2022/03/05 02:31:27;;;;;;;15.00;5.78;;;0.90;73.90;;;;;;5040260;28;20053;-72
2022/03/05 02:34:00;;;;;;;16.15;5.40;;;1.00;73.90;;;;;;5046686;28;20052;-73
2022/03/05 02:36:31;;;;;;;15.55;5.10;;;0.90;73.90;;;;;;5042635;28;20056;-70
2022/03/05 02:39:01;;;;;;;15.73;6.03;;;1.00;73.90;;;;;;5048954;28;20489;-70
2022/03/05 02:41:28;;;;;;;18.05;5.60;;;1.00;74.00;;;;;;5049872;28;20041;-71
2022/03/05 02:44:03;;;;;;;13.70;5.05;;;0.90;74.10;;;;;;5049146;28;20052;-71
2022/03/05 02:46:34;;;;;;;15.20;4.82;;;0.90;74.10;;;;;;5046894;28;20049;-70
2022/03/05 02:49:05;;;;;;;16.23;5.65;;;0.90;74.00;;;;;;5047051;28;20703;-71
2022/03/05 02:51:33;;;;;;;14.00;4.90;;;0.80;74.20;;;;;;5058826;28;20143;-70
2022/03/05 02:54:02;;;;;;;13.75;4.82;;;0.80;74.30;;;;;;5049643;28;20163;-69
2022/03/05 02:56:30;;;;;;;11.80;4.35;;;0.90;74.30;;;;;;5055037;28;20044;-72
2022/03/05 02:58:57;;;;;;;12.27;5.38;;;0.90;74.10;;;;;;5050748;28;20122;-69
2022/03/05 03:01:24;;;;;;;13.18;5.15;;;0.90;74.10;;;;;;5041364;28;20048;-72
2022/03/05 03:03:53;;;;;;;11.15;4.78;;;0.80;74.10;;;;;;5042667;28;20052;-72
2022/03/05 03:06:23;;;;;;;13.10;4.45;;;0.80;74.10;;;;;;5042020;28;20116;-72
2022/03/05 03:08:50;;;;;;;14.88;5.07;;;0.80;73.90;;;;;;5044073;28;20052;-71
2022/03/05 03:11:19;;;;;;;11.45;5.18;;;0.80;74.20;;;;;;5045218;28;20620;-70
2022/03/05 03:13:47;;;;;;;12.55;5.70;;;0.80;74.20;;;;;;5048010;28;20086;-72
2022/03/05 03:16:19;;;;;;;13.30;4.97;;;0.80;74.10;;;;;;5047050;28;20048;-69
2022/03/05 03:19:03;;;;;;;13.32;5.18;;;0.70;74.20;;;;;;5047948;28;20178;-70
2022/03/05 03:21:33;;;;;;;14.57;4.57;;;0.80;74.20;;;;;;5052216;28;20051;-71
2022/03/05 03:24:04;;;;;;;12.80;4.47;;;0.70;74.20;;;;;;5050896;28;20040;-72
2022/03/05 03:26:33;;;;;;;11.00;3.58;;;0.70;74.10;;;;;;5055848;28;20076;-72
2022/03/05 03:29:00;;;;;;;11.43;4.65;;;0.70;74.10;;;;;;5053336;28;20171;-71
2022/03/05 03:31:27;;;;;;;10.88;4.38;;;0.70;74.20;;;;;;5051002;28;20049;-70
2022/03/05 03:33:56;;;;;;;14.30;5.28;;;0.70;74.20;;;;;;5052582;28;20040;-69
2022/03/05 03:36:23;;;;;;;17.23;6.40;;;0.60;74.40;;;;;;5051833;28;20052;-71
2022/03/05 03:38:49;;;;;;;10.90;5.07;;;0.60;74.20;;;;;;5052328;28;20568;-71
2022/03/05 03:41:38;;;;;;;10.82;4.03;;;0.60;74.40;;;;;;5051692;28;20541;-70
2022/03/05 03:44:09;;;;;;;11.95;4.63;;;0.60;74.50;;;;;;5052842;28;20412;-71
2022/03/05 03:46:37;;;;;;;10.05;5.05;;;0.50;74.50;;;;;;5053418;28;20048;-70
2022/03/05 03:49:08;;;;;;;14.63;5.25;;;0.60;74.40;;;;;;5046281;28;21674;-70
2022/03/05 03:51:38;;;;;;;9.33;4.50;;;0.60;74.40;;;;;;5041147;28;20049;-70
2022/03/05 03:54:06;;;;;;;15.80;5.40;;;0.50;74.30;;;;;;5049785;28;20516;-71
2022/03/05 03:56:35;;;;;;;14.43;5.50;;;0.50;74.40;;;;;;5054301;28;20044;-71
2022/03/05 03:59:02;;;;;;;13.43;5.35;;;0.50;74.40;;;;;;5051926;28;20432;-71
2022/03/05 04:01:32;;;;;;;12.40;4.93;;;0.40;74.60;;;;;;5049534;28;20049;-71
2022/03/05 04:03:59;;;;;;;14.40;5.95;;;0.40;74.60;;;;;;5054396;28;20048;-70
2022/03/05 04:09:17;;;;;;;12.25;4.57;;;0.40;74.50;;;;;;5054760;28;20067;-70
2022/03/05 04:11:47;;;;;;;13.75;5.70;;;0.40;74.60;;;;;;5054816;28;20446;-71
2022/03/05 04:14:35;;;;;;;10.32;4.00;;;0.30;74.60;;;;;;5054523;28;20052;-70
2022/03/05 04:17:11;;;;;;;13.13;3.92;;;0.30;74.70;;;;;;5053150;28;20049;-71
2022/03/05 04:19:39;;;;;;;12.50;4.80;;;0.30;74.60;;;;;;5053001;28;21572;-71
2022/03/05 04:22:08;;;;;;;12.40;4.45;;;0.30;74.50;;;;;;5051301;28;20068;-70
2022/03/05 04:24:38;;;;;;;12.30;4.57;;;0.20;74.50;;;;;;5050183;28;20177;-71
2022/03/05 04:27:12;;;;;;;11.27;4.78;;;0.20;74.60;;;;;;5051280;28;20065;-71
2022/03/05 04:29:39;;;;;;;12.27;3.67;;;0.20;74.60;;;;;;5051515;28;20056;-70
2022/03/05 04:32:09;;;;;;;12.73;4.65;;;0.20;74.60;;;;;;5051140;28;20037;-72
2022/03/05 04:34:36;;;;;;;11.68;4.78;;;0.20;74.70;;;;;;5049367;28;20191;-71
2022/03/05 04:37:06;;;;;;;13.43;4.93;;;0.20;74.70;;;;;;5052707;28;20041;-72
2022/03/05 04:39:37;;;;;;;13.25;4.00;;;0.10;74.70;;;;;;5051504;28;20057;-71
2022/03/05 04:42:10;;;;;;;14.48;5.55;;;0.00;74.70;;;;;;5050943;28;20056;-70
2022/03/05 04:44:37;;;;;;;10.53;5.40;;;0.10;74.70;;;;;;5044711;28;20048;-72
2022/03/05 04:47:05;;;;;;;17.08;5.18;;;0.10;74.70;;;;;;5048864;28;20713;-70
2022/03/05 04:49:33;;;;;;;9.77;4.20;;;0.00;74.70;;;;;;5047977;28;20044;-70
2022/03/05 04:52:03;;;;;;;15.15;5.20;;;0.00;74.60;;;;;;5048968;28;20048;-72
2022/03/05 04:54:33;;;;;;;10.95;4.30;;;0.00;74.70;;;;;;5051041;28;20110;-72
2022/03/05 04:57:00;;;;;;;9.88;4.88;;;0.00;74.80;;;;;;5043351;28;20059;-71
2022/03/05 04:59:28;;;;;;;14.00;4.78;;;0.00;74.70;;;;;;5050541;28;20041;-72
2022/03/05 05:01:59;;;;;;;14.38;5.70;;;0.00;74.70;;;;;;5042955;28;20059;-71
2022/03/05 05:04:29;;;;;;;8.60;3.60;;;0.00;74.70;;;;;;5041932;28;20051;-72
2022/03/05 05:07:01;;;;;;;10.95;4.30;;;0.00;74.70;;;;;;5043889;28;20048;-71
2022/03/05 05:09:49;;;;;;;15.05;6.03;;;0.00;74.70;;;;;;5048128;28;20059;-69
2022/03/05 05:12:18;;;;;;;9.75;3.40;;;0.00;74.80;;;;;;5048166;28;20044;-69
2022/03/05 05:14:46;;;;;;;13.05;5.43;;;0.00;74.80;;;;;;5052647;28;20057;-71
2022/03/05 05:17:15;;;;;;;10.05;3.85;;;0.00;74.90;;;;;;5040900;28;20170;-72
2022/03/05 05:19:42;;;;;;;11.48;4.18;;;-3276.70;74.70;;;;;;5042214;28;20222;-70
2022/03/05 05:22:11;;;;;;;11.32;4.75;;;-3276.70;74.70;;;;;;5044150;28;20052;-72
2022/03/05 05:24:43;;;;;;;;;;;-3276.70;74.90;;;;;;5041754;28;20521;-70
2022/03/05 05:27:10;;;;;;;9.88;4.63;;;-3276.70;74.80;;;;;;5040197;28;19925;-70
2022/03/05 05:29:37;;;;;;;12.50;5.03;;;-3276.70;74.70;;;;;;5044317;28;20544;-71
2022/03/05 05:32:07;;;;;;;16.45;4.38;;;-3276.70;74.80;;;;;;5039824;28;20040;-70
2022/03/05 05:34:38;;;;;;;14.27;5.53;;;-3276.70;74.70;;;;;;5044337;28;20110;-70
2022/03/05 05:37:06;;;;;;;10.95;5.30;;;-3276.60;74.80;;;;;;5044251;28;20029;-70
2022/03/05 05:39:48;;;;;;;12.05;5.43;;;-3276.60;74.90;;;;;;5039695;28;20057;-71
2022/03/05 05:42:17;;;;;;;12.07;5.22;;;-3276.60;74.90;;;;;;5039795;28;20517;-70
2022/03/05 05:44:47;;;;;;;14.20;5.40;;;-3276.60;74.80;;;;;;5042139;28;20044;-71
2022/03/05 05:47:14;;;;;;;18.65;5.47;;;-3276.60;74.90;;;;;;5043660;28;20055;-72
2022/03/05 05:49:41;;;;;;;15.75;5.45;;;-3276.60;74.90;;;;;;5040603;28;20049;-71
2022/03/05 05:52:10;;;;;;;9.63;4.07;;;-3276.60;74.80;;;;;;5041932;28;20554;-70
2022/03/05 05:54:39;;;;;;;11.02;3.95;;;-3276.60;74.90;;;;;;5040440;28;20116;-71
2022/03/05 05:59:59;;;;;;;16.63;5.38;;;-3276.60;75.00;;;;;;5037232;28;20083;-71
2022/03/05 06:02:26;;;;;;;12.05;5.13;;;-3276.50;75.10;;;;;;5036918;28;20049;-69
2022/03/05 06:04:53;;;;;;;9.00;3.85;;;-3276.50;75.10;;;;;;5038610;28;20129;-70
2022/03/05 06:07:21;;;;;;;15.00;5.80;;;-3276.50;75.00;;;;;;5038461;28;20178;-71
2022/03/05 06:09:48;;;;;;;10.82;4.80;;;-3276.50;75.00;;;;;;5042684;28;20063;-69
2022/03/05 06:12:20;;;;;;;13.40;5.18;;;-3276.50;75.10;;;;;;5040551;28;20048;-72
2022/03/05 06:14:48;;;;;;;13.70;5.05;;;-3276.50;75.20;;;;;;5037596;28;20713;-69
2022/03/05 06:17:16;;;;;;;15.90;5.65;;;-3276.50;75.20;;;;;;5039490;28;20060;-70
2022/03/05 06:19:44;;;;;;;15.18;5.35;;;-3276.50;75.10;;;;;;5043622;28;20059;-71
2022/03/05 06:22:11;;;;;;;11.98;5.38;;;-3276.50;75.20;;;;;;5041395;28;20051;-71
2022/03/05 06:24:39;;;;;;;17.92;6.05;;;-3276.50;75.20;;;;;;5040829;28;21401;-70
2022/03/05 06:27:09;;;;;;;11.48;6.05;;;-3276.50;75.30;;;;;;5041688;28;20044;-71
2022/03/05 06:29:38;;;;;;;9.55;4.07;;;-3276.50;75.40;;;;;;5037721;28;20487;-71
2022/03/05 06:32:05;;;;;;;13.50;4.40;;;-3276.50;75.40;;;;;;5042829;28;20090;-72
2022/03/05 06:34:32;;;;;;;14.50;4.47;;;-3276.50;75.60;;;;;;5037364;28;20501;-69
2022/03/05 06:37:00;;;;;;;12.07;4.90;;;-3276.50;75.50;;;;;;5041212;28;20127;-71
2022/03/05 06:39:31;;;;;;;13.63;5.50;;;-3276.50;75.50;;;;;;5038592;28;20056;-70
2022/03/05 06:41:58;;;;;;;12.98;6.10;;;-3276.50;75.60;;;;;;5039187;28;20052;-70
2022/03/05 06:44:25;;;;;;;10.75;4.75;;;-3276.60;75.60;;;;;;5041675;28;20053;-71
2022/03/05 06:46:54;;;;;;;12.40;6.90;;;-3276.50;75.70;;;;;;5042457;28;20127;-71
2022/03/05 06:49:22;;;;;;;14.80;6.18;;;-3276.50;75.90;;;;;;5039868;28;20074;-71
2022/03/05 06:51:53;;;;;;;16.75;5.65;;;-3276.60;75.90;;;;;;5039421;28;20049;-68
2022/03/05 06:54:23;;;;;;;10.75;4.30;;;-3276.60;76.00;;;;;;5045095;28;21586;-70
2022/03/05 06:56:51;;;;;;;12.52;5.07;;;-3276.60;76.10;;;;;;5048054;28;20072;-71
2022/03/05 06:59:21;;;;;;;15.48;6.43;;;-3276.60;76.10;;;;;;5044294;28;20051;-72
2022/03/05 07:01:49;;;;;;;10.35;5.13;;;-3276.60;76.20;;;;;;5044237;28;20045;-70
2022/03/05 07:04:18;;;;;;;11.50;4.75;;;-3276.60;76.30;;;;;;5046297;28;20494;-72
2022/03/05 07:06:45;;;;;;;16.70;4.82;;;-3276.70;76.40;;;;;;5048732;28;20040;-72
2022/03/05 07:09:12;;;;;;;13.00;5.32;;;-3276.70;76.30;;;;;;5050002;28;20079;-71
2022/03/05 07:11:40;;;;;;;11.68;5.57;;;-3276.70;76.40;;;;;;5051693;28;20188;-71
2022/03/05 07:14:07;;;;;;;15.55;6.35;;;-3276.70;76.40;;;;;;5048458;28;20041;-70
2022/03/05 07:16:35;;;;;;;12.57;4.68;;;0.00;76.40;;;;;;5046497;28;20063;-70
2022/03/05 07:19:02;;;;;;;16.52;5.35;;;0.00;76.50;;;;;;5047287;28;20048;-71
2022/03/05 07:21:32;;;;;;;13.23;5.80;;;0.00;76.60;;;;;;5044162;28;20572;-69
2022/03/05 07:24:06;;;;;;;13.60;6.18;;;0.00;76.60;;;;;;5044895;28;20063;-71
2022/03/05 07:26:37;;;;;;;15.93;5.40;;;0.00;76.80;;;;;;5044366;28;21341;-70
2022/03/05 07:29:05;;;;;;;11.70;5.00;;;0.00;76.70;;;;;;5045904;28;20047;-71
2022/03/05 07:31:32;;;;;;;8.48;4.47;;;0.10;76.70;;;;;;5042877;28;21686;-71
2022/03/05 07:33:59;;;;;;;16.48;5.57;;;0.20;76.60;;;;;;5041210;28;20068;-70
2022/03/05 07:36:27;;;;;;;32.72;8.68;;;0.20;76.80;;;;;;5048338;28;20127;-70
2022/03/05 07:38:56;;;;;;;44.42;9.85;;;0.20;76.90;;;;;;5053167;28;20052;-70
2022/03/05 07:41:24;;;;;;;24.85;9.55;;;0.20;77.00;;;;;;5036175;28;20217;-71
2022/03/05 07:43:51;;;;;;;26.05;6.75;;;0.30;77.00;;;;;;5050071;28;20045;-71
2022/03/05 07:46:19;;;;;;;16.60;7.22;;;0.30;77.00;;;;;;5048003;28;20545;-69
2022/03/05 07:48:46;;;;;;;19.88;6.57;;;0.40;77.10;;;;;;5043408;28;20814;-72
2022/03/05 07:51:14;;;;;;;18.13;6.55;;;0.40;77.10;;;;;;5041704;28;20142;-71
2022/03/05 07:53:42;;;;;;;18.15;6.13;;;0.50;76.90;;;;;;5044737;28;20049;-71
2022/03/05 07:56:11;;;;;;;20.48;6.47;;;0.50;77.00;;;;;;5044397;28;20477;-72
2022/03/05 07:58:46;;;;;;;22.48;6.05;;;0.60;77.00;;;;;;5042402;28;20052;-72
2022/03/05 08:01:14;;;;;;;11.13;5.47;;;0.70;77.00;;;;;;5039180;28;20780;-70
2022/03/05 08:03:41;;;;;;;15.95;5.68;;;0.70;77.00;;;;;;5049962;28;20060;-72
2022/03/05 08:06:08;;;;;;;14.27;5.15;;;0.80;77.00;;;;;;5052621;28;20038;-70
2022/03/05 08:08:36;;;;;;;19.20;6.80;;;0.90;77.00;;;;;;5047528;28;20044;-70
2022/03/05 08:11:04;;;;;;;14.43;6.30;;;1.00;76.60;;;;;;5048290;28;20737;-70
2022/03/05 08:13:33;;;;;;;14.98;4.97;;;1.10;76.20;;;;;;5047858;28;20048;-70
2022/03/05 08:16:01;;;;;;;10.60;5.40;;;1.30;76.20;;;;;;5048159;28;20763;-69
2022/03/05 08:18:28;;;;;;;16.33;6.40;;;1.40;76.50;;;;;;5047846;28;20032;-72
2022/03/05 08:20:56;;;;;;;16.13;5.82;;;1.40;76.40;;;;;;5047570;28;20040;-73
2022/03/05 08:23:26;;;;;;;16.85;6.25;;;1.50;76.90;;;;;;5043997;28;21893;-70
2022/03/05 08:25:57;;;;;;;14.60;6.70;;;1.60;76.60;;;;;;5044039;28;20405;-71
2022/03/05 08:28:24;;;;;;;;;;;1.60;76.10;;;;;;5045136;28;20605;-69
2022/03/05 08:30:53;;;;;;;10.90;5.03;;;1.70;76.00;;;;;;5045332;28;19928;-70
2022/03/05 08:33:21;;;;;;;13.32;5.43;;;1.70;75.90;;;;;;5044921;28;20075;-72
2022/03/05 08:35:49;;;;;;;14.32;5.35;;;1.80;76.60;;;;;;5042912;28;20132;-69
2022/03/05 08:38:18;;;;;;;11.13;5.60;;;1.90;76.70;;;;;;5043630;28;20044;-69
2022/03/05 08:40:45;;;;;;;12.18;5.95;;;2.00;76.80;;;;;;5048631;28;20049;-70
2022/03/05 08:43:12;;;;;;;15.10;6.28;;;2.10;76.90;;;;;;5044928;28;20123;-70
2022/03/05 08:45:43;;;;;;;14.43;5.88;;;2.10;76.60;;;;;;5046289;28;20056;-70
2022/03/05 08:48:11;;;;;;;10.15;5.32;;;2.30;76.80;;;;;;5049489;28;20138;-71
2022/03/05 08:50:38;;;;;;;13.45;5.70;;;2.30;76.10;;;;;;5047739;28;20044;-72
2022/03/05 08:53:05;;;;;;;15.30;5.63;;;2.40;76.10;;;;;;5048170;28;20093;-70
2022/03/05 08:55:33;;;;;;;13.05;6.13;;;2.50;75.80;;;;;;5050575;28;20052;-71
2022/03/05 08:58:01;;;;;;;9.98;5.07;;;2.70;76.00;;;;;;5041788;28;20114;-71
2022/03/05 09:00:40;;;;;;;14.95;6.35;;;2.70;75.60;;;;;;5042740;28;20047;-70
2022/03/05 09:03:28;;;;;;;13.95;5.40;;;2.80;75.30;;;;;;5040131;28;20060;-71
2022/03/05 09:05:57;;;;;;;11.50;4.80;;;2.90;75.40;;;;;;5042248;28;20048;-72
2022/03/05 09:08:25;;;;;;;12.10;5.60;;;3.00;75.60;;;;;;5042545;28;23687;-71
2022/03/05 09:10:53;;;;;;;12.23;4.72;;;3.20;75.30;;;;;;5044419;28;20084;-71
2022/03/05 09:13:20;;;;;;;10.65;4.43;;;3.30;74.70;;;;;;5040388;28;20136;-71
2022/03/05 09:15:47;;;;;;;11.82;5.97;;;3.40;74.30;;;;;;5045151;28;20047;-71
2022/03/05 09:18:16;;;;;;;11.18;4.13;;;3.40;74.20;;;;;;5042589;28;20957;-70
2022/03/05 09:20:50;;;;;;;10.65;5.28;;;3.50;74.20;;;;;;5043328;28;20044;-68
2022/03/05 09:23:18;;;;;;;11.82;5.07;;;3.60;73.90;;;;;;5039741;28;20714;-72
2022/03/05 09:26:19;;;;;;;9.93;5.22;;;3.70;73.00;;;;;;5039038;28;20045;-72
2022/03/05 09:28:47;;;;;;;11.45;4.05;;;3.80;72.90;;;;;;5038781;28;20057;-71
2022/03/05 09:31:15;;;;;;;10.00;4.45;;;3.90;72.80;;;;;;5041998;28;20048;-73
2022/03/05 09:33:48;;;;;;;9.93;5.10;;;3.90;72.50;;;;;;5046231;28;20070;-70
2022/03/05 09:36:17;;;;;;;9.75;4.60;;;4.00;72.30;;;;;;5044332;28;20044;-70
2022/03/05 09:38:48;;;;;;;11.88;5.00;;;4.10;72.00;;;;;;5048480;28;20052;-68
2022/03/05 09:41:16;;;;;;;10.35;4.28;;;4.20;71.90;;;;;;5048472;28;20056;-72
2022/03/05 09:43:53;;;;;;;8.50;3.72;;;4.20;71.60;;;;;;5042496;28;20143;-71
2022/03/05 09:46:30;;;;;;;13.25;4.82;;;4.30;71.50;;;;;;5049935;28;20178;-72
2022/03/05 09:49:01;;;;;;;8.73;3.92;;;4.40;71.20;;;;;;5043523;28;20187;-73
2022/03/05 09:51:28;;;;;;;10.60;4.73;;;4.50;71.20;;;;;;5040590;28;20090;-71
2022/03/05 09:53:58;;;;;;;9.10;4.65;;;4.60;70.50;;;;;;5042119;28;20748;-70
2022/03/05 09:56:28;;;;;;;10.63;4.93;;;4.70;69.80;;;;;;5042467;28;20052;-70
2022/03/05 09:58:56;;;;;;;11.52;4.32;;;4.80;68.40;;;;;;5044293;28;20502;-72
2022/03/05 10:01:24;;;;;;;9.13;4.35;;;4.80;68.80;;;;;;5041611;28;20048;-71
2022/03/05 10:03:54;;;;;;;10.32;4.55;;;4.80;68.60;;;;;;5040164;28;20045;-72
2022/03/05 10:06:24;;;;;;;9.48;4.57;;;4.90;68.50;;;;;;5039695;28;20405;-71
2022/03/05 10:08:58;;;;;;;12.07;4.40;;;5.00;69.10;;;;;;5046076;28;20060;-72
2022/03/05 10:11:40;;;;;;;11.20;4.55;;;5.00;68.50;;;;;;5050984;28;20048;-72
2022/03/05 10:14:19;;;;;;;12.15;4.30;;;5.00;68.30;;;;;;5045035;28;20044;-71
2022/03/05 10:16:49;;;;;;;13.13;5.32;;;5.20;68.40;;;;;;5047436;28;20589;-71
2022/03/05 10:19:18;;;;;;;11.68;4.78;;;5.20;67.40;;;;;;5047810;28;20047;-71
2022/03/05 10:21:57;;;;;;;11.25;4.72;;;5.20;66.90;;;;;;5035704;28;20059;-71
2022/03/05 10:24:37;;;;;;;10.23;4.03;;;5.30;66.90;;;;;;5037823;28;20072;-73
2022/03/05 10:27:07;;;;;;;11.18;4.30;;;5.30;67.10;;;;;;5044916;28;20154;-72
2022/03/05 10:29:39;;;;;;;10.57;4.75;;;5.40;66.60;;;;;;5048989;28;20095;-72
2022/03/05 10:32:21;;;;;;;9.57;4.38;;;5.40;65.90;;;;;;5050095;28;20506;-72
2022/03/05 10:34:55;;;;;;;11.27;4.57;;;5.50;65.80;;;;;;5048664;28;20051;-71
2022/03/05 10:37:28;;;;;;;9.55;4.75;;;5.60;65.00;;;;;;5050047;28;20048;-72
2022/03/05 10:40:03;;;;;;;9.57;4.70;;;5.60;64.10;;;;;;5049879;28;20536;-71
2022/03/05 10:42:31;;;;;;;11.35;4.15;;;5.70;64.10;;;;;;5055145;28;20263;-71
2022/03/05 10:45:03;;;;;;;10.52;5.15;;;5.70;64.20;;;;;;5051780;28;20045;-73
2022/03/05 10:47:37;;;;;;;10.30;4.50;;;5.80;63.60;;;;;;5047457;28;20996;-73
2022/03/05 10:50:20;;;;;;;10.05;4.13;;;5.80;63.70;;;;;;5046245;28;20075;-73
2022/03/05 10:52:52;;;;;;;11.43;5.07;;;5.80;63.50;;;;;;5051570;28;20655;-72
2022/03/05 10:55:36;;;;;;;13.02;4.30;;;5.90;63.80;;;;;;5053166;28;20462;-71
2022/03/05 10:58:13;;;;;;;10.77;4.20;;;5.90;63.00;;;;;;5047728;28;20036;-71
2022/03/05 11:00:41;;;;;;;13.88;5.45;;;6.00;63.00;;;;;;5045384;28;20036;-71
2022/03/05 11:03:09;;;;;;;8.07;4.20;;;6.00;63.00;;;;;;5049866;28;20048;-71
2022/03/05 11:05:37;;;;;;;9.93;4.13;;;6.10;62.40;;;;;;5046517;28;20037;-72
2022/03/05 11:08:18;;;;;;;8.73;4.05;;;6.10;63.00;;;;;;5044833;28;20130;-71
2022/03/05 11:10:50;;;;;;;11.13;4.38;;;6.20;62.20;;;;;;5043567;28;20056;-72
2022/03/05 11:13:18;;;;;;;10.40;3.78;;;6.20;62.30;;;;;;5049804;28;20041;-72
2022/03/05 11:15:46;;;;;;;9.35;4.20;;;6.10;61.80;;;;;;5049935;28;20119;-72
2022/03/05 11:18:17;;;;;;;8.27;3.85;;;6.10;60.00;;;;;;5050477;28;20122;-74
2022/03/05 11:20:45;;;;;;;8.65;3.78;;;6.10;59.60;;;;;;5049642;28;20060;-73
2022/03/05 11:23:17;;;;;;;9.40;3.53;;;6.10;59.80;;;;;;5061364;28;20052;-73
2022/03/05 11:25:47;;;;;;;9.63;3.65;;;6.20;59.50;;;;;;5057632;28;20051;-72
2022/03/05 11:28:19;;;;;;;7.20;2.88;;;6.20;59.30;;;;;;5061594;28;20197;-70
2022/03/05 11:30:47;;;;;;;6.75;3.00;;;6.30;58.30;;;;;;5049173;28;20072;-71
2022/03/05 11:33:21;;;;;;;8.27;3.22;;;6.20;58.70;;;;;;5047057;28;20036;-72
2022/03/05 11:35:48;;;;;;;7.93;3.30;;;6.30;58.90;;;;;;5047506;28;20075;-72
2022/03/05 11:38:36;;;;;;;9.32;3.10;;;6.30;58.30;;;;;;5047110;28;20630;-71
2022/03/05 11:41:25;;;;;;;7.85;3.28;;;6.30;58.30;;;;;;5041636;28;20060;-72
2022/03/05 11:43:53;;;;;;;7.57;3.05;;;6.30;57.50;;;;;;5048825;28;20058;-72
2022/03/05 11:46:27;;;;;;;8.30;3.63;;;6.30;56.70;;;;;;5051947;28;20056;-71
2022/03/05 11:49:02;;;;;;;8.52;3.97;;;6.40;56.70;;;;;;5048506;28;21282;-72
2022/03/05 11:51:29;;;;;;;8.98;3.47;;;6.40;57.10;;;;;;5044851;28;20132;-72
2022/03/05 11:54:14;;;;;;;7.53;3.33;;;6.50;56.50;;;;;;5051059;28;20676;-72
2022/03/05 11:57:08;;;;;;;7.88;3.63;;;6.60;57.30;;;;;;5055941;28;20334;-71
2022/03/05 11:59:38;;;;;;;7.68;3.38;;;6.70;57.50;;;;;;5044795;28;20047;-71
2022/03/05 12:02:15;;;;;;;7.40;3.42;;;6.80;57.40;;;;;;5046665;28;20051;-71
2022/03/05 12:04:48;;;;;;;12.07;3.90;;;6.90;56.40;;;;;;5051464;28;20033;-73
2022/03/05 12:07:16;;;;;;;8.05;2.88;;;6.90;56.30;;;;;;5051740;28;20047;-70
2022/03/05 12:09:56;;;;;;;7.07;2.88;;;6.90;55.70;;;;;;5048505;28;20696;-71
2022/03/05 12:12:28;;;;;;;7.47;3.05;;;6.90;55.30;;;;;;5051353;28;20041;-71
2022/03/05 12:15:18;;;;;;;8.13;2.88;;;6.90;55.40;;;;;;5052632;28;20563;-72
2022/03/05 12:17:52;;;;;;;5.75;2.13;;;6.90;55.50;;;;;;5052293;28;20040;-71
2022/03/05 12:20:21;;;;;;;6.65;2.78;;;6.90;55.20;;;;;;5050441;28;20062;-71
2022/03/05 12:23:03;;;;;;;7.50;2.70;;;6.80;55.60;;;;;;5052789;28;20055;-73
2022/03/05 12:25:34;;;;;;;7.88;2.72;;;6.80;55.90;;;;;;5051407;28;20388;-70
2022/03/05 12:28:17;;;;;;;8.07;3.08;;;6.70;56.40;;;;;;5052409;28;20679;-72
2022/03/05 12:30:58;;;;;;;;;;;;;;;;;;;;;
2022/03/05 12:33:26;;;;;;;9.68;3.28;;;6.70;55.70;;;;;;5050132;28;20052;-71
2022/03/05 12:35:55;;;;;;;5.75;2.25;;;6.80;55.40;;;;;;5050165;28;20048;-71
2022/03/05 12:38:23;;;;;;;7.53;3.58;;;6.90;54.90;;;;;;5051269;28;20049;-71
2022/03/05 12:40:55;;;;;;;9.32;3.05;;;7.00;55.20;;;;;;5051849;28;20052;-71
2022/03/05 12:43:24;;;;;;;8.70;3.63;;;7.00;55.50;;;;;;5052070;28;20040;-72
2022/03/05 12:45:52;;;;;;;8.38;3.20;;;7.10;54.80;;;;;;5066511;28;20118;-72
2022/03/05 12:48:22;;;;;;;7.40;3.05;;;7.10;54.90;;;;;;5054657;28;20041;-72
2022/03/05 12:50:57;;;;;;;7.13;2.83;;;7.10;54.90;;;;;;5055089;28;20049;-71
2022/03/05 12:53:26;;;;;;;7.60;3.15;;;7.20;54.50;;;;;;5052781;28;20131;-71
2022/03/05 12:55:58;;;;;;;5.45;2.88;;;7.20;54.50;;;;;;5053014;28;20056;-72
2022/03/05 12:58:29;;;;;;;7.15;3.03;;;7.20;54.00;;;;;;5052959;28;20051;-71
2022/03/05 13:01:00;;;;;;;7.35;3.53;;;7.30;52.70;;;;;;5047044;28;20049;-71
2022/03/05 13:03:38;;;;;;;6.85;3.20;;;7.30;52.90;;;;;;5056432;28;20063;-72
2022/03/05 13:06:22;;;;;;;10.38;3.55;;;7.40;51.10;;;;;;5054075;28;20171;-70
2022/03/05 13:08:49;;;;;;;9.13;3.53;;;7.30;51.20;;;;;;5049712;28;20126;-71